createdAt,value
2019-03-29T00:02:47.143Z,17.27
2019-03-29T00:07:51.180Z,13.17
2019-03-29T00:12:56.978Z,9.77
2019-03-29T00:17:59.379Z,11.27
2019-03-29T00:23:01.634Z,9.60
2019-03-29T00:28:03.813Z,11.50
2019-03-29T00:33:07.075Z,11.03
2019-03-29T00:38:18.197Z,10.27
2019-03-29T00:43:20.758Z,8.57
2019-03-29T00:48:22.919Z,7.80
2019-03-29T00:53:25.033Z,7.40
2019-03-29T00:58:27.350Z,8.87
2019-03-29T01:03:30.133Z,10.93
2019-03-29T01:08:32.298Z,12.60
2019-03-29T01:13:34.436Z,14.00
2019-03-29T01:18:37.941Z,13.13
2019-03-29T01:23:40.736Z,10.53
2019-03-29T01:28:43.423Z,10.57
2019-03-29T01:33:46.454Z,9.47
2019-03-29T01:38:48.571Z,9.27
2019-03-29T01:43:51.272Z,9.30
2019-03-29T01:48:53.551Z,11.87
2019-03-29T01:53:56.029Z,11.43
2019-03-29T01:58:58.344Z,10.47
2019-03-29T02:04:00.475Z,10.13
2019-03-29T02:09:04.983Z,9.53
2019-03-29T02:14:07.284Z,8.67
2019-03-29T02:19:09.495Z,10.00
2019-03-29T02:24:12.059Z,14.03
2019-03-29T02:29:14.419Z,16.80
2019-03-29T02:34:17.243Z,13.93
2019-03-29T02:39:19.423Z,16.53
2019-03-29T02:44:21.710Z,14.60
2019-03-29T02:49:24.836Z,15.73
2019-03-29T02:54:27.258Z,12.53
2019-03-29T02:59:29.414Z,14.30
2019-03-29T03:04:31.509Z,12.53
2019-03-29T03:09:33.660Z,11.77
2019-03-29T03:14:35.820Z,11.30
2019-03-29T03:19:38.048Z,10.00
2019-03-29T03:24:40.388Z,11.67
2019-03-29T03:29:42.576Z,9.40
2019-03-29T03:34:45.260Z,10.00
2019-03-29T03:39:47.552Z,8.03
2019-03-29T03:44:50.142Z,9.10
2019-03-29T03:49:52.292Z,9.93
2019-03-29T03:54:54.608Z,12.10
2019-03-29T03:59:56.809Z,14.40
2019-03-29T04:04:58.987Z,11.60
2019-03-29T04:10:01.615Z,11.13
2019-03-29T04:15:03.780Z,8.80
2019-03-29T04:20:06.066Z,9.40
2019-03-29T04:25:08.204Z,7.97
2019-03-29T04:30:10.472Z,8.00
2019-03-29T04:35:12.626Z,7.87
2019-03-29T04:40:14.918Z,8.67
2019-03-29T04:45:17.106Z,7.70
2019-03-29T04:50:19.371Z,8.07
2019-03-29T04:55:21.536Z,7.27
2019-03-29T05:00:23.732Z,7.13
2019-03-29T05:05:25.914Z,7.97
2019-03-29T05:10:28.091Z,8.87
2019-03-29T05:15:30.239Z,6.87
2019-03-29T05:20:32.458Z,8.10
2019-03-29T05:25:34.656Z,8.40
2019-03-29T05:30:36.754Z,8.47
2019-03-29T05:35:39.230Z,8.20
2019-03-29T05:40:41.346Z,10.28
2019-03-29T05:45:43.560Z,7.80
2019-03-29T05:50:46.013Z,7.60
2019-03-29T05:55:48.538Z,7.87
2019-03-29T06:00:50.942Z,7.47
2019-03-29T06:05:53.114Z,7.87
2019-03-29T06:10:55.282Z,8.60
2019-03-29T06:15:58.062Z,8.47
2019-03-29T06:21:00.262Z,8.60
2019-03-29T06:26:02.467Z,8.13
2019-03-29T06:31:04.806Z,9.77
2019-03-29T06:36:07.420Z,9.13
2019-03-29T06:41:09.621Z,9.53
2019-03-29T06:46:12.488Z,10.97
2019-03-29T06:51:14.677Z,9.53
2019-03-29T06:56:16.934Z,12.27
2019-03-29T07:01:19.189Z,13.13
2019-03-29T07:06:22.589Z,14.73
2019-03-29T07:11:25.538Z,21.60
2019-03-29T07:16:27.922Z,26.30
2019-03-29T07:21:30.745Z,31.60
2019-03-29T07:26:32.967Z,26.67
2019-03-29T07:31:35.154Z,30.70
2019-03-29T07:36:37.338Z,32.77
2019-03-29T07:41:39.713Z,33.23
2019-03-29T07:46:41.934Z,35.30
2019-03-29T07:51:44.276Z,34.37
2019-03-29T07:56:46.783Z,38.23
2019-03-29T08:01:48.981Z,44.50
2019-03-29T08:06:51.202Z,46.97
2019-03-29T08:11:55.124Z,45.77
2019-03-29T08:16:57.879Z,47.83
2019-03-29T08:22:00.473Z,45.30
2019-03-29T08:27:02.698Z,43.80
2019-03-29T08:32:04.809Z,44.47
2019-03-29T08:37:06.972Z,44.30
2019-03-29T08:42:09.622Z,44.00
2019-03-29T08:47:12.209Z,45.67
2019-03-29T08:52:14.465Z,44.90
2019-03-29T08:57:16.617Z,44.87
2019-03-29T09:02:18.781Z,46.17
2019-03-29T09:07:21.363Z,48.83
2019-03-29T09:12:23.630Z,53.27
2019-03-29T09:17:25.962Z,53.03
2019-03-29T09:22:28.122Z,51.57
2019-03-29T09:27:32.014Z,54.90
2019-03-29T09:32:34.473Z,54.00
2019-03-29T09:37:36.660Z,54.67
2019-03-29T09:42:38.932Z,53.97
2019-03-29T09:47:41.185Z,62.47
2019-03-29T09:52:43.435Z,67.10
2019-03-29T09:57:45.620Z,57.80
2019-03-29T10:02:47.858Z,65.03
2019-03-29T10:07:50.061Z,61.55
2019-03-29T10:12:52.286Z,60.43
2019-03-29T10:17:54.497Z,61.28
2019-03-29T10:22:56.663Z,63.28
2019-03-29T10:27:58.804Z,62.48
2019-03-29T10:33:00.961Z,60.60
2019-03-29T10:38:03.154Z,64.30
2019-03-29T10:43:05.317Z,63.28
2019-03-29T10:48:07.520Z,63.00
2019-03-29T10:53:09.758Z,63.40
2019-03-29T10:58:11.950Z,61.20
2019-03-29T11:03:15.499Z,64.35
2019-03-29T11:08:17.683Z,61.18
2019-03-29T11:13:19.842Z,59.53
2019-03-29T11:18:24.722Z,59.50
2019-03-29T11:23:30.927Z,60.95
2019-03-29T11:28:33.124Z,59.30
2019-03-29T11:33:35.314Z,55.67
2019-03-29T11:38:37.562Z,56.85
2019-03-29T11:43:40.396Z,57.40
2019-03-29T11:48:42.726Z,52.15
2019-03-29T11:53:44.904Z,54.40
2019-03-29T11:58:47.637Z,53.42
2019-03-29T12:03:49.982Z,53.15
2019-03-29T12:08:52.146Z,52.23
2019-03-29T12:13:55.903Z,47.93
2019-03-29T12:18:58.318Z,45.92
2019-03-29T12:24:00.671Z,47.03
2019-03-29T12:29:03.012Z,44.03
2019-03-29T12:34:05.521Z,46.80
2019-03-29T12:39:07.725Z,47.33
2019-03-29T12:44:09.920Z,41.55
2019-03-29T12:49:12.054Z,40.33
2019-03-29T12:54:14.187Z,39.00
2019-03-29T12:59:16.356Z,40.43
2019-03-29T13:04:18.557Z,40.85
2019-03-29T13:09:20.776Z,42.27
2019-03-29T13:14:24.034Z,43.60
2019-03-29T13:19:26.311Z,41.48
2019-03-29T13:24:28.464Z,40.70
2019-03-29T13:29:31.974Z,38.92
2019-03-29T13:34:34.726Z,39.30
2019-03-29T13:39:36.856Z,38.23
2019-03-29T13:44:38.935Z,36.70
2019-03-29T13:49:41.036Z,37.20
2019-03-29T13:54:43.280Z,37.73
2019-03-29T13:59:45.453Z,36.30
2019-03-29T14:04:47.550Z,35.75
2019-03-29T14:09:49.702Z,35.88
2019-03-29T14:14:51.844Z,37.03
2019-03-29T14:19:54.088Z,34.40
2019-03-29T14:24:56.584Z,35.92
2019-03-29T14:30:04.775Z,34.80
2019-03-29T14:35:06.614Z,34.25
2019-03-29T14:40:09.010Z,30.75
2019-03-29T14:45:11.359Z,34.25
2019-03-29T14:50:14.192Z,33.85
2019-03-29T14:55:16.565Z,33.42
2019-03-29T15:00:34.155Z,34.23
2019-03-29T15:05:37.412Z,34.20
2019-03-29T15:10:39.988Z,33.42
2019-03-29T15:15:42.419Z,31.60
2019-03-29T15:20:53.442Z,31.73
2019-03-29T15:25:50.361Z,32.78
2019-03-29T15:30:53.706Z,32.13
2019-03-29T15:35:59.917Z,31.82
2019-03-29T15:41:05.683Z,30.17
2019-03-29T15:46:08.167Z,33.53
2019-03-29T15:51:11.094Z,31.62
2019-03-29T15:56:13.641Z,31.82
2019-03-29T16:01:16.117Z,30.40
2019-03-29T16:06:18.618Z,30.20
2019-03-29T16:11:22.534Z,29.07
2019-03-29T16:16:25.194Z,28.20
2019-03-29T16:21:27.720Z,27.77
2019-03-29T16:26:30.186Z,26.55
2019-03-29T16:31:32.776Z,27.55
2019-03-29T16:36:35.052Z,27.55
2019-03-29T16:41:37.323Z,26.80
2019-03-29T16:46:40.123Z,25.20
2019-03-29T16:51:42.364Z,25.00
2019-03-29T16:56:44.686Z,24.65
2019-03-29T17:01:46.924Z,25.12
2019-03-29T17:06:50.150Z,24.92
2019-03-29T17:11:52.294Z,24.47
2019-03-29T17:16:54.442Z,23.62
2019-03-29T17:21:57.131Z,25.17
2019-03-29T17:26:59.475Z,25.62
2019-03-29T17:32:01.705Z,25.10
2019-03-29T17:37:03.853Z,25.35
2019-03-29T17:42:08.199Z,26.50
2019-03-29T17:47:10.501Z,29.72
2019-03-29T17:52:12.769Z,30.85
2019-03-29T17:57:15.056Z,32.95
2019-03-29T18:02:17.188Z,34.35
2019-03-29T18:07:19.403Z,33.35
2019-03-29T18:12:22.025Z,34.88
2019-03-29T18:17:24.846Z,35.65
2019-03-29T18:22:27.071Z,38.10
2019-03-29T18:27:29.305Z,34.70
2019-03-29T18:32:31.893Z,35.95
2019-03-29T18:37:34.360Z,35.83
2019-03-29T18:42:36.695Z,37.03
2019-03-29T18:47:41.858Z,37.23
2019-03-29T18:52:44.591Z,35.67
2019-03-29T18:57:49.036Z,36.47
2019-03-29T19:02:54.494Z,36.23
2019-03-29T19:07:58.313Z,35.60
2019-03-29T19:13:00.793Z,34.50
2019-03-29T19:18:03.445Z,34.90
2019-03-29T19:23:05.573Z,35.20
2019-03-29T19:28:08.163Z,36.23
2019-03-29T19:33:10.347Z,35.93
2019-03-29T19:38:12.591Z,34.87
2019-03-29T19:43:20.741Z,34.90
2019-03-29T19:48:22.888Z,35.90
2019-03-29T19:53:26.118Z,35.87
2019-03-29T19:58:28.333Z,36.47
2019-03-29T20:03:30.524Z,40.43
2019-03-29T20:08:32.955Z,42.37
2019-03-29T20:13:35.137Z,43.63
2019-03-29T20:18:38.287Z,45.70
2019-03-29T20:23:40.533Z,48.10
2019-03-29T20:28:45.209Z,46.10
2019-03-29T20:33:47.880Z,46.97
2019-03-29T20:38:51.584Z,44.57
2019-03-29T20:43:53.827Z,44.57
2019-03-29T20:49:06.315Z,44.50
2019-03-29T20:54:08.484Z,45.43
2019-03-29T20:59:10.897Z,44.07
2019-03-29T21:04:13.420Z,44.77
2019-03-29T21:09:15.512Z,43.90
2019-03-29T21:14:18.063Z,45.63
2019-03-29T21:19:20.482Z,46.17
2019-03-29T21:24:22.774Z,48.27
2019-03-29T21:29:25.117Z,47.47
2019-03-29T21:34:27.679Z,51.83
2019-03-29T21:39:31.378Z,55.03
2019-03-29T21:44:33.728Z,55.17
2019-03-29T21:49:36.248Z,54.73
2019-03-29T21:54:39.261Z,54.77
2019-03-29T21:59:41.518Z,58.13
2019-03-29T22:04:43.744Z,53.50
2019-03-29T22:09:45.956Z,56.97
2019-03-29T22:14:48.106Z,55.97
2019-03-29T22:19:51.149Z,57.53
2019-03-29T22:24:53.301Z,55.80
2019-03-29T22:29:55.991Z,54.33
2019-03-29T22:34:58.308Z,53.70
2019-03-29T22:40:00.433Z,54.13
2019-03-29T22:45:02.971Z,52.47
2019-03-29T22:50:06.031Z,57.10
2019-03-29T22:55:08.285Z,56.27
2019-03-29T23:00:17.832Z,61.73
2019-03-29T23:05:20.147Z,61.27
2019-03-29T23:10:22.280Z,60.27
2019-03-29T23:15:24.454Z,58.53
2019-03-29T23:20:27.397Z,57.07
2019-03-29T23:25:29.558Z,58.07
2019-03-29T23:30:32.052Z,65.90
2019-03-29T23:35:34.166Z,63.73
2019-03-29T23:40:36.698Z,58.90
2019-03-29T23:45:39.145Z,59.97
2019-03-29T23:50:41.278Z,61.03
2019-03-29T23:55:43.418Z,59.73
